This is the latest recevied weather packets stored in our database for station/object KG5WBN. If no packets are shown the sender has not sent any weather packets the latest 10 day(s).
| Time | Temp. | Humidity | Pressure | Rain* | Wind** | Luminosity | Snow |
|---|---|---|---|---|---|---|---|
| 1777498854 | 31.11° C | 32% | 1009.8 hPa | 0 mm | - | 205 W/m² | - |
| 1777498551 | 30.56° C | 34% | 1010.2 hPa | 0 mm | - | 283 W/m² | - |
| 1777498247 | 30.56° C | 33% | 1010.2 hPa | 0 mm | - | 271 W/m² | - |
| 1777497946 | 30.56° C | 33% | 1010.2 hPa | 0 mm | - | 353 W/m² | - |
| 1777497641 | 31.11° C | 32% | 1010.2 hPa | 0 mm | - | 343 W/m² | - |
| 1777497338 | 31.67° C | 32% | 1010.2 hPa | 0 mm | - | 358 W/m² | - |
| 1777497033 | 31.67° C | 32% | 1010.5 hPa | 0 mm | - | 367 W/m² | - |
| 1777496731 | 31.11° C | 32% | 1010.5 hPa | 0 mm | - | 360 W/m² | - |
| 1777496427 | 31.67° C | 31% | 1010.5 hPa | 0 mm | - | 348 W/m² | - |
| 1777496124 | 31.67° C | 32% | 1010.5 hPa | 0 mm | - | 361 W/m² | - |
| 1777495820 | 31.67° C | 32% | 1010.2 hPa | 0 mm | - | 321 W/m² | - |
| 1777495516 | 31.67° C | 32% | 1010.5 hPa | 0 mm | - | 359 W/m² | - |
| 1777495212 | 31.67° C | 31% | 1010.5 hPa | 0 mm | - | 373 W/m² | - |
| 1777494910 | 31.11° C | 32% | 1010.2 hPa | 0 mm | - | 360 W/m² | - |
| 1777494607 | 31.11° C | 32% | 1010.5 hPa | 0 mm | - | 381 W/m² | - |
| 1777494304 | 31.11° C | 32% | 1010.8 hPa | 0 mm | - | 378 W/m² | - |
| 1777494000 | 31.67° C | 31% | 1010.8 hPa | 0 mm | - | 359 W/m² | - |
| 1777493699 | 32.22° C | 30% | 1010.8 hPa | 0 mm | - | 385 W/m² | - |
| 1777493396 | 31.67° C | 31% | 1011.2 hPa | 0 mm | - | 386 W/m² | - |
| 1777493092 | 32.22° C | 30% | 1011.5 hPa | 0 mm | - | 394 W/m² | - |
| 1777492789 | 32.22° C | 32% | 1011.5 hPa | 0 mm | - | 387 W/m² | - |
| 1777492484 | 32.22° C | 36% | 1011.9 hPa | 0 mm | - | 394 W/m² | - |
| 1777492181 | 31.67° C | 38% | 1011.5 hPa | 0 mm | - | 393 W/m² | - |
| 1777491878 | 31.67° C | 38% | 1011.5 hPa | 0 mm | - | 413 W/m² | - |
| 1777491574 | 32.22° C | 36% | 1011.9 hPa | 0 mm | - | 397 W/m² | - |
* Rain latest hour (hover to see other rain measurements)
** Current wind speed in m/s (hover to see current wind gust speed)